Time,TemperatureF,DewpointF,PressureIn,WindDirection,WindDirectionDegrees,WindSpeedMPH,WindSpeedGustMPH,Humidity,HourlyPrecipIn,Conditions,Clouds,dailyrainin,SoftwareType,DateUTC
2013-02-14 00:02:00,28.0,27.0,29.77,SSE,168,0.0,0.0,96,0.00,,,0.00,,2013-02-14 05:02:00,
2013-02-14 00:11:00,28.0,27.0,29.77,SSE,168,0.0,0.0,96,0.00,,,0.00,,2013-02-14 05:11:00,
2013-02-14 00:22:00,28.0,27.0,29.77,SSE,168,0.0,0.0,95,0.00,,,0.00,,2013-02-14 05:22:00,
2013-02-14 00:32:00,28.0,27.0,29.77,SSE,168,0.0,0.0,95,0.00,,,0.00,,2013-02-14 05:32:00,
2013-02-14 00:42:00,28.0,27.0,29.77,SSE,168,0.0,0.0,95,0.00,,,0.00,,2013-02-14 05:42:00,
2013-02-14 00:52:00,28.0,27.0,29.77,SSE,168,0.0,0.0,96,0.00,,,0.00,,2013-02-14 05:52:00,
2013-02-14 01:02:00,28.0,27.0,29.77,East,80,0.0,0.0,96,0.00,,,0.00,,2013-02-14 06:02:00,
2013-02-14 01:11:00,28.0,27.0,29.77,East,80,0.0,0.0,96,0.00,,,0.00,,2013-02-14 06:11:00,
2013-02-14 01:21:00,28.0,27.0,29.77,East,80,0.0,0.0,96,0.00,,,0.00,,2013-02-14 06:21:00,
2013-02-14 01:32:00,29.0,28.0,29.77,East,80,0.0,0.0,96,0.00,,,0.00,,2013-02-14 06:32:00,
2013-02-14 01:42:00,29.0,28.0,29.77,East,80,0.0,0.0,96,0.00,,,0.00,,2013-02-14 06:42:00,
2013-02-14 01:52:00,29.0,28.0,29.77,East,80,0.0,0.0,96,0.00,,,0.00,,2013-02-14 06:52:00,
2013-02-14 02:01:00,29.0,28.0,29.78,East,80,0.0,0.0,96,0.00,,,0.00,,2013-02-14 07:01:00,
2013-02-14 02:11:00,28.0,27.0,29.78,East,80,0.0,0.0,95,0.00,,,0.00,,2013-02-14 07:11:00,
2013-02-14 02:21:00,28.0,27.0,29.78,East,80,0.0,0.0,95,0.00,,,0.00,,2013-02-14 07:21:00,
2013-02-14 02:32:00,28.0,27.0,29.78,East,80,0.0,0.0,95,0.00,,,0.00,,2013-02-14 07:32:00,
2013-02-14 02:42:00,28.0,27.0,29.78,East,80,0.0,0.0,95,0.00,,,0.00,,2013-02-14 07:42:00,
2013-02-14 02:52:00,28.0,27.0,29.78,East,80,0.0,0.0,95,0.00,,,0.00,,2013-02-14 07:52:00,
2013-02-14 03:01:00,28.0,27.0,29.78,SSW,201,1.0,0.0,96,0.00,,,0.00,,2013-02-14 08:01:00,
2013-02-14 03:11:00,28.0,27.0,29.78,SSW,201,1.0,0.0,96,0.00,,,0.00,,2013-02-14 08:11:00,
2013-02-14 03:21:00,29.0,28.0,29.78,South,180,0.0,0.0,95,0.00,,,0.00,,2013-02-14 08:21:00,
2013-02-14 03:32:00,29.0,28.0,29.79,South,180,0.0,0.0,95,0.00,,,0.00,,2013-02-14 08:32:00,
2013-02-14 03:43:00,29.0,28.0,29.79,South,180,0.0,0.0,95,0.00,,,0.00,,2013-02-14 08:43:00,
2013-02-14 03:52:00,29.0,28.0,29.79,South,180,0.0,0.0,95,0.00,,,0.00,,2013-02-14 08:52:00,
2013-02-14 04:02:00,29.0,28.0,29.80,SSW,193,0.0,0.0,95,0.00,,,0.00,,2013-02-14 09:02:00,
2013-02-14 04:11:00,28.0,27.0,29.80,SSW,193,0.0,0.0,95,0.00,,,0.00,,2013-02-14 09:11:00,
2013-02-14 04:21:00,28.0,27.0,29.80,SSW,193,0.0,0.0,95,0.00,,,0.00,,2013-02-14 09:21:00,
2013-02-14 04:32:00,28.0,27.0,29.81,South,184,0.0,0.0,95,0.00,,,0.00,,2013-02-14 09:32:00,
2013-02-14 04:42:00,28.0,27.0,29.81,South,184,0.0,0.0,95,0.00,,,0.00,,2013-02-14 09:42:00,
2013-02-14 04:52:00,28.0,27.0,29.81,South,184,0.0,0.0,95,0.00,,,0.00,,2013-02-14 09:52:00,
2013-02-14 05:02:00,28.0,27.0,29.82,South,184,0.0,0.0,96,0.00,,,0.00,,2013-02-14 10:02:00,
2013-02-14 05:11:00,28.0,27.0,29.82,SE,127,0.0,0.0,95,0.00,,,0.00,,2013-02-14 10:11:00,
2013-02-14 05:21:00,28.0,27.0,29.82,SE,127,0.0,0.0,95,0.00,,,0.00,,2013-02-14 10:21:00,
2013-02-14 05:32:00,28.0,27.0,29.83,SSW,200,0.0,0.0,96,0.00,,,0.00,,2013-02-14 10:32:00,
2013-02-14 05:42:00,28.0,27.0,29.83,SSW,200,0.0,0.0,96,0.00,,,0.00,,2013-02-14 10:42:00,
2013-02-14 05:52:00,28.0,27.0,29.83,SSW,200,0.0,0.0,96,0.00,,,0.00,,2013-02-14 10:52:00,
2013-02-14 06:02:00,28.0,27.0,29.83,WSW,258,1.0,0.0,96,0.00,,,0.00,,2013-02-14 11:02:00,
2013-02-14 06:11:00,28.0,27.0,29.84,WSW,240,0.0,0.0,96,0.00,,,0.00,,2013-02-14 11:11:00,
2013-02-14 06:21:00,28.0,27.0,29.84,WSW,240,0.0,0.0,96,0.00,,,0.00,,2013-02-14 11:21:00,
2013-02-14 06:32:00,28.0,27.0,29.85,South,179,2.0,2.0,96,0.00,,,0.00,,2013-02-14 11:32:00,
2013-02-14 06:42:00,28.0,27.0,29.85,South,179,2.0,2.0,96,0.00,,,0.00,,2013-02-14 11:42:00,
2013-02-14 06:52:00,28.0,27.0,29.85,South,179,2.0,2.0,96,0.00,,,0.00,,2013-02-14 11:52:00,
2013-02-14 07:02:00,28.0,27.0,29.85,SSE,159,0.0,0.0,96,0.00,,,0.00,,2013-02-14 12:02:00,
2013-02-14 07:12:00,28.0,27.0,29.85,SSE,159,0.0,0.0,96,0.00,,,0.00,,2013-02-14 12:12:00,
2013-02-14 07:22:00,28.0,27.0,29.85,SSE,159,0.0,0.0,96,0.00,,,0.00,,2013-02-14 12:22:00,
2013-02-14 07:32:00,28.0,27.0,29.86,SE,141,0.0,0.0,96,0.00,,,0.00,,2013-02-14 12:32:00,
2013-02-14 07:42:00,28.0,27.0,29.86,SE,141,0.0,0.0,96,0.00,,,0.00,,2013-02-14 12:42:00,
2013-02-14 07:53:00,28.0,27.0,29.86,SE,141,0.0,0.0,96,0.00,,,0.00,,2013-02-14 12:53:00,
2013-02-14 08:02:00,28.0,27.0,29.87,WSW,240,0.0,0.0,96,0.00,,,0.00,,2013-02-14 13:02:00,
2013-02-14 08:11:00,28.0,27.0,29.87,East,94,0.0,0.0,95,0.00,,,0.00,,2013-02-14 13:11:00,
2013-02-14 08:21:00,28.0,27.0,29.87,East,94,0.0,0.0,95,0.00,,,0.00,,2013-02-14 13:21:00,
2013-02-14 08:32:00,28.0,27.0,29.87,East,94,0.0,0.0,95,0.00,,,0.00,,2013-02-14 13:32:00,
2013-02-14 08:42:00,28.0,27.0,29.87,East,94,0.0,0.0,95,0.00,,,0.00,,2013-02-14 13:42:00,
2013-02-14 08:52:00,28.0,27.0,29.87,East,94,0.0,0.0,95,0.00,,,0.00,,2013-02-14 13:52:00,
2013-02-14 09:01:00,29.0,28.0,29.89,ESE,122,0.0,1.0,95,0.00,,,0.00,,2013-02-14 14:01:00,
2013-02-14 09:11:00,30.0,28.0,29.89,SSE,159,0.0,0.0,94,0.00,,,0.00,,2013-02-14 14:11:00,
2013-02-14 09:21:00,30.0,28.0,29.89,SSE,159,0.0,0.0,94,0.00,,,0.00,,2013-02-14 14:21:00,
2013-02-14 09:32:00,30.0,28.0,29.89,SSE,159,0.0,0.0,94,0.00,,,0.00,,2013-02-14 14:32:00,
2013-02-14 09:42:00,30.0,28.0,29.89,SSE,159,0.0,0.0,94,0.00,,,0.00,,2013-02-14 14:42:00,
2013-02-14 09:52:00,30.0,28.0,29.89,SE,142,0.0,0.0,92,0.00,,,0.00,,2013-02-14 14:52:00,
2013-02-14 10:02:00,31.0,28.0,29.90,South,186,0.0,0.0,90,0.00,,,0.00,,2013-02-14 15:02:00,
2013-02-14 10:11:00,32.0,29.0,29.90,South,169,0.0,0.0,87,0.00,,,0.00,,2013-02-14 15:11:00,
2013-02-14 10:21:00,32.0,29.0,29.90,South,169,0.0,0.0,87,0.00,,,0.00,,2013-02-14 15:21:00,
2013-02-14 10:32:00,32.0,29.0,29.90,South,169,0.0,0.0,87,0.00,,,0.00,,2013-02-14 15:32:00,
2013-02-14 10:42:00,32.0,29.0,29.90,South,169,0.0,0.0,87,0.00,,,0.00,,2013-02-14 15:42:00,
2013-02-14 10:52:00,32.0,29.0,29.90,WSW,258,0.0,0.0,87,0.00,,,0.00,,2013-02-14 15:52:00,
2013-02-14 11:02:00,33.0,29.0,29.90,South,189,6.0,6.0,84,0.00,,,0.00,,2013-02-14 16:02:00,
2013-02-14 11:11:00,34.0,29.0,29.90,SW,227,0.0,1.0,82,0.00,,,0.00,,2013-02-14 16:11:00,
2013-02-14 11:21:00,34.0,29.0,29.90,SW,227,0.0,1.0,82,0.00,,,0.00,,2013-02-14 16:21:00,
2013-02-14 11:32:00,34.0,28.0,29.90,South,179,6.0,6.0,79,0.00,,,0.00,,2013-02-14 16:32:00,
2013-02-14 11:42:00,34.0,28.0,29.90,South,179,6.0,6.0,79,0.00,,,0.00,,2013-02-14 16:42:00,
2013-02-14 11:52:00,34.0,28.0,29.90,South,179,6.0,6.0,79,0.00,,,0.00,,2013-02-14 16:52:00,
2013-02-14 12:01:00,35.0,29.0,29.89,WSW,242,7.0,7.0,77,0.00,,,0.00,,2013-02-14 17:01:00,
2013-02-14 12:11:00,36.0,30.0,29.88,WNW,290,6.0,6.0,78,0.00,,,0.00,,2013-02-14 17:11:00,
2013-02-14 12:21:00,36.0,30.0,29.88,WNW,290,6.0,6.0,78,0.00,,,0.00,,2013-02-14 17:21:00,
2013-02-14 12:32:00,36.0,30.0,29.88,WNW,290,6.0,6.0,78,0.00,,,0.00,,2013-02-14 17:32:00,
2013-02-14 12:42:00,36.0,30.0,29.88,WNW,290,6.0,6.0,78,0.00,,,0.00,,2013-02-14 17:42:00,
2013-02-14 12:52:00,36.0,30.0,29.88,WNW,290,6.0,6.0,78,0.00,,,0.00,,2013-02-14 17:52:00,
2013-02-14 13:01:00,37.0,29.0,29.88,South,182,4.0,4.0,73,0.00,,,0.00,,2013-02-14 18:01:00,
2013-02-14 13:11:00,37.0,29.0,29.88,South,182,4.0,4.0,73,0.00,,,0.00,,2013-02-14 18:11:00,
2013-02-14 13:23:00,38.0,29.0,29.88,SSW,197,4.0,5.0,69,0.00,,,0.00,,2013-02-14 18:23:00,
2013-02-14 13:32:00,37.0,28.0,29.88,SSW,203,0.0,3.0,70,0.00,,,0.00,,2013-02-14 18:32:00,
2013-02-14 13:42:00,37.0,28.0,29.88,SSW,203,0.0,3.0,70,0.00,,,0.00,,2013-02-14 18:42:00,
2013-02-14 13:52:00,37.0,28.0,29.88,SSW,203,0.0,3.0,70,0.00,,,0.00,,2013-02-14 18:52:00,
2013-02-14 14:02:00,37.0,29.0,29.87,West,259,2.0,2.0,72,0.00,,,0.00,,2013-02-14 19:02:00,
2013-02-14 14:11:00,37.0,29.0,29.87,West,259,2.0,2.0,72,0.00,,,0.00,,2013-02-14 19:11:00,
2013-02-14 14:21:00,37.0,29.0,29.87,West,259,2.0,2.0,72,0.00,,,0.00,,2013-02-14 19:21:00,
2013-02-14 14:32:00,37.0,27.0,29.86,South,175,0.0,0.0,68,0.00,,,0.00,,2013-02-14 19:32:00,
2013-02-14 14:42:00,37.0,27.0,29.86,South,175,0.0,0.0,68,0.00,,,0.00,,2013-02-14 19:42:00,
2013-02-14 14:52:00,37.0,27.0,29.86,South,175,0.0,0.0,68,0.00,,,0.00,,2013-02-14 19:52:00,
2013-02-14 15:01:00,38.0,29.0,29.86,NW,310,0.0,1.0,69,0.00,,,0.00,,2013-02-14 20:01:00,
2013-02-14 15:11:00,38.0,28.0,29.86,South,183,4.0,6.0,68,0.00,,,0.00,,2013-02-14 20:11:00,
2013-02-14 15:21:00,38.0,28.0,29.86,South,183,4.0,6.0,68,0.00,,,0.00,,2013-02-14 20:21:00,
2013-02-14 15:32:00,37.0,28.0,29.86,SW,217,0.0,0.0,69,0.00,,,0.00,,2013-02-14 20:32:00,
2013-02-14 15:40:00,37.0,29.0,29.86,South,186,2.0,2.0,73,0.00,,,0.00,,2013-02-14 20:40:00,
2013-02-14 15:42:00,37.0,28.0,29.86,SW,217,0.0,0.0,69,0.00,,,0.00,,2013-02-14 20:42:00,
2013-02-14 15:52:00,37.0,28.0,29.86,SW,217,0.0,0.0,69,0.00,,,0.00,,2013-02-14 20:52:00,
2013-02-14 16:02:00,37.0,29.0,29.86,South,186,2.0,2.0,73,0.00,,,0.00,,2013-02-14 21:02:00,
2013-02-14 16:32:00,37.0,29.0,29.86,South,186,2.0,2.0,73,0.00,,,0.00,,2013-02-14 21:32:00,
2013-02-14 17:02:00,36.0,29.0,29.86,SW,224,0.0,0.0,74,0.00,,,0.00,,2013-02-14 22:02:00,
2013-02-14 17:11:00,36.0,29.0,29.86,SW,224,0.0,0.0,74,0.00,,,0.00,,2013-02-14 22:11:00,
2013-02-14 17:21:00,36.0,29.0,29.86,SW,224,0.0,0.0,74,0.00,,,0.00,,2013-02-14 22:21:00,
2013-02-14 17:32:00,35.0,28.0,29.87,SSW,211,0.0,0.0,75,0.00,,,0.00,,2013-02-14 22:32:00,
2013-02-14 17:42:00,35.0,28.0,29.87,SSW,211,0.0,0.0,75,0.00,,,0.00,,2013-02-14 22:42:00,
2013-02-14 17:52:00,35.0,28.0,29.87,SSW,211,0.0,0.0,75,0.00,,,0.00,,2013-02-14 22:52:00,
2013-02-14 18:01:00,34.0,27.0,29.88,SSW,211,0.0,0.0,76,0.00,,,0.00,,2013-02-14 23:01:00,
2013-02-14 18:11:00,34.0,27.0,29.88,SSW,211,0.0,0.0,76,0.00,,,0.00,,2013-02-14 23:11:00,
2013-02-14 18:21:00,34.0,28.0,29.88,SSW,211,0.0,0.0,78,0.00,,,0.00,,2013-02-14 23:21:00,
2013-02-14 18:32:00,34.0,28.0,29.88,SSW,211,0.0,0.0,78,0.00,,,0.00,,2013-02-14 23:32:00,
2013-02-14 18:42:00,34.0,28.0,29.88,SSW,211,0.0,0.0,78,0.00,,,0.00,,2013-02-14 23:42:00,
2013-02-14 18:52:00,34.0,28.0,29.88,SSW,211,0.0,0.0,78,0.00,,,0.00,,2013-02-14 23:52:00,
2013-02-14 19:01:00,32.0,28.0,29.88,SSW,211,0.0,0.0,85,0.00,,,0.00,,2013-02-15 00:01:00,
2013-02-14 19:11:00,32.0,28.0,29.88,SSW,211,0.0,0.0,85,0.00,,,0.00,,2013-02-15 00:11:00,
2013-02-14 19:22:00,32.0,28.0,29.87,SSW,211,0.0,0.0,86,0.00,,,0.00,,2013-02-15 00:22:00,
2013-02-14 19:32:00,32.0,28.0,29.87,SSW,211,0.0,0.0,86,0.00,,,0.00,,2013-02-15 00:32:00,
2013-02-14 19:42:00,32.0,28.0,29.87,SSW,211,0.0,0.0,86,0.00,,,0.00,,2013-02-15 00:42:00,
2013-02-14 19:52:00,31.0,28.0,29.87,SSW,211,0.0,0.0,88,0.00,,,0.00,,2013-02-15 00:52:00,
2013-02-14 20:02:00,31.0,28.0,29.87,SSW,211,0.0,0.0,88,0.00,,,0.00,,2013-02-15 01:02:00,
2013-02-14 20:11:00,31.0,28.0,29.87,SSW,211,0.0,0.0,88,0.00,,,0.00,,2013-02-15 01:11:00,
2013-02-14 20:21:00,31.0,27.0,29.87,SSW,211,0.0,0.0,85,0.00,,,0.00,,2013-02-15 01:21:00,
2013-02-14 20:32:00,32.0,28.0,29.87,SSW,211,0.0,0.0,84,0.00,,,0.00,,2013-02-15 01:32:00,
2013-02-14 20:41:00,32.0,28.0,29.87,SSW,211,0.0,0.0,84,0.00,,,0.00,,2013-02-15 01:41:00,
2013-02-14 20:52:00,32.0,28.0,29.87,SSW,211,0.0,0.0,84,0.00,,,0.00,,2013-02-15 01:52:00,
2013-02-14 21:01:00,32.0,28.0,29.87,SSW,211,0.0,0.0,84,0.00,,,0.00,,2013-02-15 02:01:00,
2013-02-14 21:11:00,31.0,28.0,29.87,SSW,211,0.0,0.0,87,0.00,,,0.00,,2013-02-15 02:11:00,
2013-02-14 21:21:00,31.0,28.0,29.87,SSW,211,0.0,0.0,87,0.00,,,0.00,,2013-02-15 02:21:00,
2013-02-14 21:32:00,31.0,28.0,29.86,SSW,211,0.0,0.0,89,0.00,,,0.00,,2013-02-15 02:32:00,
2013-02-14 21:42:00,31.0,28.0,29.86,SSW,211,0.0,0.0,89,0.00,,,0.00,,2013-02-15 02:42:00,
2013-02-14 21:52:00,31.0,28.0,29.86,SSW,211,0.0,0.0,89,0.00,,,0.00,,2013-02-15 02:52:00,
2013-02-14 22:02:00,31.0,28.0,29.86,SSW,211,0.0,0.0,89,0.00,,,0.00,,2013-02-15 03:02:00,
2013-02-14 22:11:00,31.0,29.0,29.86,SSW,211,0.0,0.0,92,0.00,,,0.00,,2013-02-15 03:11:00,
2013-02-14 22:22:00,31.0,29.0,29.86,SSW,211,0.0,0.0,92,0.00,,,0.00,,2013-02-15 03:22:00,
2013-02-14 22:32:00,32.0,29.0,29.86,SE,136,0.0,0.0,90,0.00,,,0.00,,2013-02-15 03:32:00,
2013-02-14 22:42:00,32.0,29.0,29.86,SE,136,0.0,0.0,90,0.00,,,0.00,,2013-02-15 03:42:00,
2013-02-14 22:52:00,32.0,29.0,29.86,SE,136,0.0,0.0,90,0.00,,,0.00,,2013-02-15 03:52:00,
2013-02-14 23:01:00,32.0,30.0,29.85,ESE,117,0.0,0.0,93,0.00,,,0.00,,2013-02-15 04:01:00,
2013-02-14 23:11:00,32.0,31.0,29.84,SE,146,0.0,0.0,95,0.00,,,0.00,,2013-02-15 04:11:00,
2013-02-14 23:21:00,32.0,31.0,29.84,SE,146,0.0,0.0,95,0.00,,,0.00,,2013-02-15 04:21:00,
2013-02-14 23:32:00,32.0,31.0,29.83,SE,146,0.0,0.0,96,0.00,,,0.00,,2013-02-15 04:32:00,
2013-02-14 23:42:00,32.0,31.0,29.83,SE,146,0.0,0.0,96,0.00,,,0.00,,2013-02-15 04:42:00,
2013-02-14 23:52:00,32.0,31.0,29.83,SE,146,0.0,0.0,96,0.00,,,0.00,,2013-02-15 04:52:00,